Time;durP1;ratioP1;P1;durP2;ratioP2;P2;SDS_P1;SDS_P2;PMS_P1;PMS_P2;Temp;Humidity;BMP_temperature;BMP_pressure;BME280_temperature;BME280_humidity;BME280_pressure;Samples;Min_cycle;Max_cycle;Signal;HPM_P1;HPM_P2
2024/03/19 00:01:37;;;;;;;3.22;2.28;;;18.30;94.20;;;;;;5034171;28;20021;-46
2024/03/19 00:04:04;;;;;;;2.80;2.00;;;18.30;94.20;;;;;;5033623;28;20033;-45
2024/03/19 00:06:31;;;;;;;3.97;2.20;;;18.30;94.20;;;;;;5032406;28;20493;-46
2024/03/19 00:08:56;;;;;;;2.55;2.00;;;18.30;94.20;;;;;;5033316;28;20127;-45
2024/03/19 00:11:22;;;;;;;2.30;1.80;;;18.30;94.20;;;;;;5033328;28;20116;-45
2024/03/19 00:13:48;;;;;;;3.00;1.90;;;18.30;94.20;;;;;;5033633;28;20022;-43
2024/03/19 00:16:14;;;;;;;2.55;1.90;;;18.30;94.20;;;;;;5033299;28;20104;-44
2024/03/19 00:18:40;;;;;;;2.83;2.05;;;18.20;94.10;;;;;;5033340;28;20109;-44
2024/03/19 00:21:05;;;;;;;2.60;2.08;;;18.20;94.10;;;;;;5033168;28;20488;-44
2024/03/19 00:23:31;;;;;;;3.08;2.10;;;18.30;94.20;;;;;;5033111;28;20104;-44
2024/03/19 00:25:57;;;;;;;2.65;1.77;;;18.20;94.10;;;;;;5033050;28;20029;-46
2024/03/19 00:28:23;;;;;;;2.67;1.63;;;18.30;94.20;;;;;;5032898;28;20018;-46
2024/03/19 00:30:49;;;;;;;2.47;1.70;;;18.20;94.10;;;;;;5032890;28;20443;-46
2024/03/19 00:33:15;;;;;;;2.58;1.75;;;18.20;94.10;;;;;;5033032;28;20021;-46
2024/03/19 00:35:46;;;;;;;2.55;1.95;;;18.20;94.10;;;;;;5033026;28;20033;-46
2024/03/19 00:38:13;;;;;;;2.47;1.73;;;18.20;94.10;;;;;;5032809;28;20041;-45
2024/03/19 00:40:39;;;;;;;2.22;1.73;;;18.30;94.20;;;;;;5032801;28;20025;-45
2024/03/19 00:43:04;;;;;;;3.17;1.85;;;18.20;94.20;;;;;;5032867;28;20388;-45
2024/03/19 00:45:30;;;;;;;3.38;1.88;;;18.20;94.50;;;;;;5032877;28;20083;-45
2024/03/19 00:47:56;;;;;;;2.28;1.75;;;18.20;94.20;;;;;;5032586;28;20033;-45
2024/03/19 00:50:21;;;;;;;2.30;1.65;;;18.20;94.10;;;;;;5032563;28;20401;-45
2024/03/19 00:52:47;;;;;;;1.70;1.40;;;18.20;94.10;;;;;;5032584;28;20397;-45
2024/03/19 00:55:13;;;;;;;2.85;1.65;;;18.20;94.10;;;;;;5032538;28;20057;-45
2024/03/19 00:57:39;;;;;;;2.30;1.63;;;18.20;94.20;;;;;;5032489;28;20037;-45
2024/03/19 01:00:11;;;;;;;2.45;1.70;;;18.20;94.20;;;;;;5032396;28;20026;-45
2024/03/19 01:02:41;;;;;;;3.10;1.50;;;18.20;94.20;;;;;;5032614;28;20100;-46
2024/03/19 01:05:08;;;;;;;2.05;1.55;;;18.20;94.20;;;;;;5032388;28;20026;-46
2024/03/19 01:07:44;;;;;;;3.05;1.40;;;18.20;94.20;;;;;;5032141;28;20116;-44
2024/03/19 01:10:10;;;;;;;2.40;1.52;;;18.20;94.20;;;;;;5032204;28;20026;-46
2024/03/19 01:12:38;;;;;;;2.95;1.67;;;18.10;94.20;;;;;;5032386;28;20067;-45
2024/03/19 01:15:05;;;;;;;1.73;1.52;;;18.10;94.20;;;;;;5032214;28;20108;-43
2024/03/19 01:17:32;;;;;;;1.75;1.48;;;18.10;94.20;;;;;;5031974;28;20029;-44
2024/03/19 01:19:58;;;;;;;2.25;1.48;;;18.10;94.20;;;;;;5032115;28;20040;-44
2024/03/19 01:22:23;;;;;;;2.47;1.70;;;18.10;94.20;;;;;;5032137;28;20029;-45
2024/03/19 01:24:49;;;;;;;1.70;1.30;;;18.10;94.20;;;;;;5032047;28;20108;-46
2024/03/19 01:27:15;;;;;;;1.80;1.27;;;18.10;94.20;;;;;;5032014;28;20030;-45
2024/03/19 01:29:41;;;;;;;2.67;1.45;;;18.10;94.50;;;;;;5031771;28;20428;-46
2024/03/19 01:32:06;;;;;;;1.52;1.20;;;18.10;94.20;;;;;;5031885;28;20465;-43
2024/03/19 01:34:32;;;;;;;2.08;1.42;;;18.10;94.20;;;;;;5031736;28;20029;-46
2024/03/19 01:36:57;;;;;;;1.60;1.25;;;18.10;94.20;;;;;;5031791;28;20076;-46
2024/03/19 01:39:23;;;;;;;1.95;1.40;;;18.10;94.20;;;;;;5031722;28;20496;-44
2024/03/19 01:41:49;;;;;;;2.17;1.40;;;18.10;94.20;;;;;;5031733;28;20052;-44
2024/03/19 01:44:18;;;;;;;2.47;1.38;;;18.10;94.20;;;;;;5032074;28;20029;-45
2024/03/19 01:46:44;;;;;;;1.80;1.40;;;18.10;94.20;;;;;;5031654;28;20021;-44
2024/03/19 01:49:11;;;;;;;1.60;1.20;;;18.10;94.20;;;;;;5031479;28;20516;-44
2024/03/19 01:51:37;;;;;;;1.52;1.15;;;18.00;94.20;;;;;;5031659;28;20029;-44
2024/03/19 01:54:03;;;;;;;1.95;1.30;;;18.00;94.20;;;;;;5031669;28;20277;-44
2024/03/19 01:56:31;;;;;;;1.75;1.05;;;18.00;94.20;;;;;;5031397;28;20117;-44
2024/03/19 01:58:58;;;;;;;1.92;1.20;;;18.00;94.50;;;;;;5031835;28;20082;-44
2024/03/19 02:01:24;;;;;;;1.92;1.30;;;18.00;94.10;;;;;;5031382;28;20036;-44
2024/03/19 02:03:50;;;;;;;1.55;1.40;;;18.00;94.10;;;;;;5031305;28;20029;-46
2024/03/19 02:06:16;;;;;;;2.03;1.20;;;18.00;94.10;;;;;;5031486;28;20033;-44
2024/03/19 02:09:04;;;;;;;1.40;1.08;;;18.00;94.10;;;;;;5031399;28;20046;-44
2024/03/19 02:11:30;;;;;;;1.83;1.40;;;18.10;94.20;;;;;;5031189;28;20381;-46
2024/03/19 02:13:58;;;;;;;1.77;1.15;;;18.00;94.10;;;;;;5031462;28;20051;-44
2024/03/19 02:16:23;;;;;;;1.70;1.23;;;18.00;94.10;;;;;;5031352;28;20033;-45
2024/03/19 02:19:06;;;;;;;1.45;1.30;;;18.00;94.10;;;;;;5031528;28;20022;-45
2024/03/19 02:21:33;;;;;;;2.30;1.05;;;18.00;94.10;;;;;;5031143;28;20037;-45
2024/03/19 02:24:01;;;;;;;1.35;1.10;;;18.00;94.10;;;;;;5031268;28;20021;-46
2024/03/19 02:26:29;;;;;;;1.40;1.20;;;18.00;94.10;;;;;;5031121;28;20033;-45
2024/03/19 02:28:55;;;;;;;1.70;1.20;;;18.00;94.10;;;;;;5032235;28;20022;-45
2024/03/19 02:31:24;;;;;;;3.80;1.40;;;18.00;94.00;;;;;;5035214;28;20506;-46
2024/03/19 02:33:50;;;;;;;3.38;1.08;;;18.00;94.10;;;;;;5033912;28;20477;-46
2024/03/19 02:36:16;;;;;;;1.83;1.27;;;18.00;94.00;;;;;;5034940;28;20494;-46
2024/03/19 02:38:41;;;;;;;1.55;0.95;;;18.00;94.00;;;;;;5035065;28;20079;-46
2024/03/19 02:41:08;;;;;;;1.38;1.23;;;18.00;94.00;;;;;;5034912;28;20025;-44
2024/03/19 02:43:35;;;;;;;1.48;1.02;;;18.00;94.00;;;;;;5035049;28;20029;-45
2024/03/19 02:46:00;;;;;;;1.15;1.00;;;18.00;94.00;;;;;;5034804;28;20550;-45
2024/03/19 02:48:26;;;;;;;1.33;1.20;;;18.00;94.00;;;;;;5035016;28;20038;-45
2024/03/19 02:50:52;;;;;;;1.67;1.10;;;18.00;94.00;;;;;;5035311;28;20060;-45
2024/03/19 02:53:20;;;;;;;1.55;1.00;;;18.00;94.00;;;;;;5035076;28;20025;-45
2024/03/19 02:55:49;;;;;;;1.23;0.90;;;18.00;94.00;;;;;;5034548;28;20096;-44
2024/03/19 02:58:17;;;;;;;1.40;1.00;;;18.00;94.00;;;;;;5034648;28;20029;-44
2024/03/19 03:00:43;;;;;;;1.75;1.00;;;17.90;94.30;;;;;;5034621;28;20101;-44
2024/03/19 03:03:09;;;;;;;1.58;0.95;;;17.90;94.00;;;;;;5035020;28;20108;-43
2024/03/19 03:05:35;;;;;;;1.20;0.90;;;17.90;93.90;;;;;;5034515;28;20547;-46
2024/03/19 03:08:01;;;;;;;1.40;0.90;;;17.90;94.00;;;;;;5034543;28;20033;-46
2024/03/19 03:10:26;;;;;;;1.30;1.10;;;17.90;94.00;;;;;;5034296;28;20556;-46
2024/03/19 03:12:52;;;;;;;1.05;0.90;;;17.90;93.90;;;;;;5034533;28;20025;-46
2024/03/19 03:15:18;;;;;;;1.50;1.00;;;17.90;93.90;;;;;;5034404;28;20017;-45
2024/03/19 03:17:43;;;;;;;1.65;0.90;;;17.90;93.90;;;;;;5034291;28;20022;-45
2024/03/19 03:20:11;;;;;;;1.40;0.95;;;17.90;93.90;;;;;;5034264;28;20120;-44
2024/03/19 03:22:40;;;;;;;1.33;1.00;;;17.90;93.90;;;;;;5034884;28;20021;-45
2024/03/19 03:25:11;;;;;;;1.25;0.90;;;17.90;93.90;;;;;;5034107;28;20108;-44
2024/03/19 03:27:40;;;;;;;0.95;0.82;;;17.90;93.90;;;;;;5034199;28;20489;-44
2024/03/19 03:30:10;;;;;;;1.13;0.90;;;17.90;94.00;;;;;;5034081;28;20057;-45
2024/03/19 03:32:38;;;;;;;1.10;0.70;;;17.90;93.90;;;;;;5034327;28;20021;-45
2024/03/19 03:35:03;;;;;;;1.25;0.95;;;17.90;93.90;;;;;;5034164;28;20037;-45
2024/03/19 03:37:30;;;;;;;1.25;0.90;;;17.90;93.90;;;;;;5033810;28;20397;-43
2024/03/19 03:39:56;;;;;;;1.88;0.90;;;17.90;93.90;;;;;;5033870;28;20022;-45
2024/03/19 03:42:23;;;;;;;1.40;1.00;;;17.90;93.90;;;;;;5033947;28;20033;-45
2024/03/19 03:44:49;;;;;;;1.23;0.77;;;17.90;93.90;;;;;;5033758;28;20021;-45
2024/03/19 03:47:15;;;;;;;1.00;0.80;;;17.90;93.90;;;;;;5034001;28;20447;-46
2024/03/19 03:49:40;;;;;;;0.70;0.60;;;17.90;93.80;;;;;;5033684;28;20117;-45
2024/03/19 03:52:07;;;;;;;1.02;0.63;;;17.80;93.80;;;;;;5033730;28;20025;-46
2024/03/19 03:54:33;;;;;;;0.98;0.75;;;17.90;93.80;;;;;;5034194;28;20022;-45
2024/03/19 03:56:59;;;;;;;1.30;0.80;;;17.90;93.80;;;;;;5033765;28;20507;-45
2024/03/19 03:59:25;;;;;;;0.98;0.88;;;17.90;93.80;;;;;;5033633;28;20029;-45
2024/03/19 04:01:50;;;;;;;1.10;0.80;;;17.90;93.80;;;;;;5033623;28;20107;-45
2024/03/19 04:04:16;;;;;;;2.15;0.85;;;17.90;93.80;;;;;;5033583;28;20096;-45
2024/03/19 04:06:41;;;;;;;1.00;0.70;;;17.90;93.70;;;;;;5033369;28;20029;-45
2024/03/19 04:09:07;;;;;;;1.75;0.65;;;17.90;93.70;;;;;;5033334;28;20488;-46
2024/03/19 04:11:33;;;;;;;0.90;0.63;;;17.90;93.70;;;;;;5033372;28;20033;-46
2024/03/19 04:13:59;;;;;;;1.30;0.90;;;17.90;93.70;;;;;;5033765;28;20021;-46
2024/03/19 04:16:24;;;;;;;0.88;0.77;;;17.90;93.70;;;;;;5033471;28;20492;-45
2024/03/19 04:18:50;;;;;;;1.10;0.80;;;17.90;93.70;;;;;;5033253;28;20096;-45
2024/03/19 04:21:16;;;;;;;1.20;0.80;;;17.90;93.70;;;;;;5033124;28;20516;-45
2024/03/19 04:23:41;;;;;;;0.80;0.70;;;17.80;93.60;;;;;;5033423;28;20022;-45
2024/03/19 04:26:07;;;;;;;0.95;0.80;;;17.90;93.70;;;;;;5033050;28;20021;-45
2024/03/19 04:28:33;;;;;;;1.67;0.70;;;17.90;93.60;;;;;;5033063;28;20078;-44
2024/03/19 04:30:58;;;;;;;0.85;0.70;;;17.80;93.60;;;;;;5032933;28;20123;-45
2024/03/19 04:33:24;;;;;;;1.00;0.63;;;17.80;93.60;;;;;;5032954;28;20040;-45
2024/03/19 04:35:50;;;;;;;1.10;0.80;;;17.80;93.60;;;;;;5033318;28;20455;-45
2024/03/19 04:38:16;;;;;;;0.90;0.70;;;17.80;93.60;;;;;;5032755;28;20030;-45
2024/03/19 04:40:42;;;;;;;1.25;0.75;;;17.80;93.60;;;;;;5032852;28;20030;-45
2024/03/19 04:43:07;;;;;;;1.15;0.70;;;17.80;93.60;;;;;;5032889;28;20026;-45
2024/03/19 04:45:33;;;;;;;0.80;0.60;;;17.80;93.60;;;;;;5032832;28;20380;-44
2024/03/19 04:47:59;;;;;;;0.63;0.57;;;17.80;93.60;;;;;;5032517;28;20021;-45
2024/03/19 04:50:24;;;;;;;2.28;0.63;;;17.80;93.60;;;;;;5032592;28;20558;-44
2024/03/19 04:52:50;;;;;;;2.08;0.75;;;17.80;93.60;;;;;;5032408;28;20033;-45
2024/03/19 04:55:16;;;;;;;0.90;0.70;;;17.80;93.60;;;;;;5032648;28;20496;-44
2024/03/19 04:57:42;;;;;;;0.52;0.50;;;17.80;93.60;;;;;;5032416;28;20041;-43
2024/03/19 05:00:13;;;;;;;0.52;0.50;;;17.80;93.60;;;;;;5032579;28;20026;-44
2024/03/19 05:02:39;;;;;;;0.80;0.60;;;17.80;93.50;;;;;;5031077;28;20403;-46
2024/03/19 05:05:05;;;;;;;0.82;0.70;;;17.80;93.50;;;;;;5032396;28;20040;-46
2024/03/19 05:07:30;;;;;;;0.85;0.70;;;17.80;93.50;;;;;;5032393;28;20029;-46
2024/03/19 05:09:56;;;;;;;1.00;0.65;;;17.80;93.50;;;;;;5032192;28;20037;-44
2024/03/19 05:12:21;;;;;;;0.65;0.60;;;17.80;93.50;;;;;;5032268;28;20033;-44
2024/03/19 05:14:47;;;;;;;1.20;0.77;;;17.80;93.50;;;;;;5032264;28;20029;-44
2024/03/19 05:17:13;;;;;;;1.00;0.70;;;17.70;93.40;;;;;;5032044;28;20022;-44
2024/03/19 05:19:39;;;;;;;2.15;0.73;;;17.80;93.40;;;;;;5032269;28;20055;-44
2024/03/19 05:22:04;;;;;;;0.98;0.60;;;17.80;93.40;;;;;;5032063;28;20022;-45
2024/03/19 05:24:30;;;;;;;0.90;0.60;;;17.80;93.40;;;;;;5032128;28;20033;-44
2024/03/19 05:26:56;;;;;;;1.13;0.70;;;17.80;93.40;;;;;;5031991;28;20030;-45
2024/03/19 05:29:22;;;;;;;1.40;0.70;;;17.70;93.30;;;;;;5032005;28;20033;-45
2024/03/19 05:31:48;;;;;;;1.00;0.73;;;17.70;93.30;;;;;;5031773;28;20025;-45
2024/03/19 05:34:14;;;;;;;1.10;0.60;;;17.70;93.30;;;;;;5032055;28;20028;-45
2024/03/19 05:36:40;;;;;;;0.80;0.70;;;17.70;93.30;;;;;;5031932;28;20388;-45
2024/03/19 05:39:09;;;;;;;0.80;0.70;;;17.70;93.30;;;;;;5032095;28;20345;-45
2024/03/19 05:41:37;;;;;;;0.80;0.60;;;17.70;93.30;;;;;;5031830;28;20036;-44
2024/03/19 05:44:03;;;;;;;1.40;0.65;;;17.70;93.30;;;;;;5032459;28;20056;-45
2024/03/19 05:46:30;;;;;;;0.77;0.55;;;17.70;93.30;;;;;;5031526;28;20037;-45
2024/03/19 05:48:55;;;;;;;1.13;0.80;;;17.70;93.30;;;;;;5030197;28;20104;-43
2024/03/19 05:51:21;;;;;;;1.17;0.73;;;17.70;93.30;;;;;;5031564;28;20116;-44
2024/03/19 05:53:46;;;;;;;1.15;0.70;;;17.70;93.30;;;;;;5031877;28;20032;-44
2024/03/19 05:56:13;;;;;;;1.00;0.80;;;17.70;93.30;;;;;;5031363;28;20449;-45
2024/03/19 05:58:39;;;;;;;1.00;0.90;;;17.70;93.30;;;;;;5031573;28;20034;-45
2024/03/19 06:01:04;;;;;;;1.10;0.82;;;17.70;93.30;;;;;;5031823;28;20110;-45
2024/03/19 06:03:33;;;;;;;1.40;1.20;;;17.70;93.40;;;;;;5030795;28;20554;-45
2024/03/19 06:06:03;;;;;;;1.10;0.80;;;17.70;93.40;;;;;;5031415;28;20036;-44
2024/03/19 06:08:29;;;;;;;1.08;0.90;;;17.70;93.40;;;;;;5031665;28;20040;-43
2024/03/19 06:10:55;;;;;;;0.68;0.63;;;17.70;93.40;;;;;;5031201;28;20026;-44
2024/03/19 06:13:21;;;;;;;1.13;0.80;;;17.70;93.40;;;;;;5031168;28;20171;-44
2024/03/19 06:15:47;;;;;;;1.83;0.88;;;17.70;93.40;;;;;;5031244;28;20104;-44
2024/03/19 06:18:12;;;;;;;1.20;1.00;;;17.70;93.40;;;;;;5031115;28;20393;-45
2024/03/19 06:20:38;;;;;;;0.60;0.60;;;17.70;93.40;;;;;;5031171;28;20164;-44
2024/03/19 06:23:04;;;;;;;0.75;0.70;;;17.70;93.40;;;;;;5031727;28;20025;-43
2024/03/19 06:25:30;;;;;;;1.23;0.90;;;17.70;93.40;;;;;;5031170;28;20040;-44
2024/03/19 06:27:56;;;;;;;3.10;0.85;;;17.70;93.40;;;;;;5030897;28;20027;-43
2024/03/19 06:30:21;;;;;;;1.48;1.08;;;17.70;93.40;;;;;;5031157;28;20457;-45
2024/03/19 06:32:47;;;;;;;1.15;0.80;;;17.70;93.40;;;;;;5029908;28;20033;-45
2024/03/19 06:35:14;;;;;;;3.75;1.38;;;17.70;93.40;;;;;;5031054;28;20469;-44
2024/03/19 06:37:41;;;;;;;2.00;1.30;;;17.60;92.20;;;;;;5030931;28;20523;-42
2024/03/19 06:40:10;;;;;;;2.13;1.30;;;17.50;91.90;;;;;;5031453;28;20060;-44
2024/03/19 06:42:36;;;;;;;2.53;1.45;;;17.50;91.90;;;;;;5030950;28;20091;-44
2024/03/19 06:45:04;;;;;;;2.40;1.55;;;17.50;92.00;;;;;;5030904;28;20025;-43
2024/03/19 06:47:29;;;;;;;2.22;1.60;;;17.60;92.10;;;;;;5030832;28;20393;-44
2024/03/19 06:49:55;;;;;;;2.05;1.20;;;17.60;92.20;;;;;;5030814;28;20056;-44
2024/03/19 06:52:21;;;;;;;2.15;1.33;;;17.60;92.30;;;;;;5031074;28;20017;-44
2024/03/19 06:54:46;;;;;;;2.95;1.42;;;17.60;92.30;;;;;;5031017;28;20076;-44
2024/03/19 06:57:12;;;;;;;1.95;1.30;;;17.60;92.40;;;;;;5030521;28;20212;-44
2024/03/19 06:59:37;;;;;;;2.03;1.23;;;17.60;92.40;;;;;;5030780;28;20091;-44
2024/03/19 07:02:06;;;;;;;2.38;1.60;;;17.60;92.50;;;;;;5031295;28;20044;-43
2024/03/19 07:04:33;;;;;;;3.03;1.52;;;17.60;92.60;;;;;;5031152;28;20109;-44
2024/03/19 07:06:59;;;;;;;1.95;1.45;;;17.60;92.60;;;;;;5031041;28;20026;-44
2024/03/19 07:09:24;;;;;;;2.35;1.30;;;17.70;92.70;;;;;;5030660;28;20026;-44
2024/03/19 07:11:50;;;;;;;1.80;1.48;;;17.70;92.70;;;;;;5030577;28;20144;-44
2024/03/19 07:14:16;;;;;;;3.38;1.27;;;17.70;92.80;;;;;;5030837;28;20060;-44
2024/03/19 07:16:42;;;;;;;2.03;1.20;;;17.70;92.80;;;;;;5034381;28;20065;-44
2024/03/19 07:19:10;;;;;;;2.70;1.25;;;17.70;92.80;;;;;;5034403;28;20134;-44
2024/03/19 07:21:36;;;;;;;1.60;1.17;;;17.80;92.80;;;;;;5034831;28;20156;-45
2024/03/19 07:24:01;;;;;;;3.00;1.35;;;17.80;92.80;;;;;;5034509;28;20108;-44
2024/03/19 07:26:27;;;;;;;2.25;1.60;;;17.80;92.90;;;;;;5034282;28;20465;-44
2024/03/19 07:28:52;;;;;;;1.42;1.20;;;17.80;92.90;;;;;;5034100;28;20029;-45
2024/03/19 07:31:18;;;;;;;2.55;1.40;;;17.90;92.90;;;;;;5034177;28;20435;-44
2024/03/19 07:33:44;;;;;;;1.75;1.10;;;17.90;92.90;;;;;;5034252;28;20072;-44
2024/03/19 07:36:10;;;;;;;1.70;1.10;;;17.90;92.90;;;;;;5034203;28;20033;-44
2024/03/19 07:38:37;;;;;;;1.85;1.30;;;18.00;92.90;;;;;;5034096;28;20163;-45
2024/03/19 07:41:04;;;;;;;1.75;1.08;;;18.00;92.90;;;;;;5033851;28;20507;-44
2024/03/19 07:43:30;;;;;;;1.20;0.98;;;18.00;92.90;;;;;;5033942;28;20037;-44
2024/03/19 07:45:55;;;;;;;1.52;1.08;;;18.10;92.90;;;;;;5033943;28;20392;-45
2024/03/19 07:48:21;;;;;;;1.55;1.00;;;18.10;92.90;;;;;;5033737;28;20079;-44
2024/03/19 07:50:47;;;;;;;2.97;0.93;;;18.20;92.90;;;;;;5033678;28;20400;-44
2024/03/19 07:53:14;;;;;;;1.65;1.05;;;18.20;92.90;;;;;;5033742;28;20026;-44
2024/03/19 07:55:39;;;;;;;1.67;0.90;;;18.30;92.80;;;;;;5033542;28;20044;-44
2024/03/19 07:58:05;;;;;;;1.92;0.95;;;18.30;92.50;;;;;;5033551;28;20037;-44
2024/03/19 08:00:32;;;;;;;1.35;1.00;;;18.40;92.50;;;;;;5033918;28;20391;-43
2024/03/19 08:02:57;;;;;;;1.02;0.90;;;18.30;92.40;;;;;;5033630;28;20113;-45
2024/03/19 08:05:23;;;;;;;1.42;0.95;;;18.40;92.40;;;;;;5033580;28;20104;-41
2024/03/19 08:07:49;;;;;;;0.80;0.80;;;18.50;92.40;;;;;;5033431;28;20026;-43
2024/03/19 08:10:15;;;;;;;2.55;0.90;;;18.50;92.30;;;;;;5033359;28;20021;-45
2024/03/19 08:12:40;;;;;;;1.40;1.00;;;18.60;92.30;;;;;;5033699;28;20384;-44
2024/03/19 08:15:07;;;;;;;1.33;0.68;;;18.60;92.30;;;;;;5033535;28;20032;-43
2024/03/19 08:17:32;;;;;;;2.13;0.63;;;18.70;92.30;;;;;;5033159;28;20049;-43
2024/03/19 08:20:06;;;;;;;1.00;0.73;;;18.70;92.20;;;;;;5033263;28;20061;-44
2024/03/19 08:22:33;;;;;;;1.98;1.00;;;18.70;92.20;;;;;;5033234;28;20029;-44
2024/03/19 08:24:59;;;;;;;1.95;1.08;;;18.80;92.20;;;;;;5033277;28;20025;-44
2024/03/19 08:27:25;;;;;;;1.08;0.88;;;18.80;92.10;;;;;;5032315;28;20032;-44
2024/03/19 08:29:51;;;;;;;1.20;0.90;;;18.80;92.10;;;;;;5033221;28;20040;-45
2024/03/19 08:32:17;;;;;;;0.93;0.70;;;18.90;92.10;;;;;;5033344;28;20029;-45
2024/03/19 08:34:43;;;;;;;1.45;0.80;;;18.90;92.00;;;;;;5033331;28;20037;-45
2024/03/19 08:37:10;;;;;;;1.15;0.98;;;19.00;92.00;;;;;;5032854;28;20492;-45
2024/03/19 08:39:35;;;;;;;0.95;0.85;;;19.00;92.00;;;;;;5033156;28;20072;-45
2024/03/19 08:42:01;;;;;;;0.80;0.80;;;19.00;92.00;;;;;;5032928;28;20026;-44
2024/03/19 08:44:26;;;;;;;1.20;0.75;;;19.10;92.00;;;;;;5032818;28;20439;-45
2024/03/19 08:46:52;;;;;;;0.70;0.52;;;19.10;91.90;;;;;;5032735;28;20029;-44
2024/03/19 08:49:18;;;;;;;1.60;0.88;;;19.20;91.90;;;;;;5032480;28;20596;-44
2024/03/19 08:51:44;;;;;;;0.80;0.70;;;19.20;91.80;;;;;;5032508;28;20028;-43
2024/03/19 08:54:09;;;;;;;1.13;0.70;;;19.30;91.80;;;;;;5032664;28;20025;-44
2024/03/19 08:56:36;;;;;;;1.05;0.70;;;19.30;91.70;;;;;;5031001;28;20045;-44
2024/03/19 08:59:03;;;;;;;1.20;0.70;;;19.30;91.70;;;;;;5032490;28;20431;-42
2024/03/19 09:01:28;;;;;;;1.27;0.90;;;19.40;91.70;;;;;;5032395;28;20538;-43
2024/03/19 09:03:54;;;;;;;1.13;0.50;;;19.40;91.60;;;;;;5032507;28;20037;-44
2024/03/19 09:06:20;;;;;;;0.70;0.57;;;19.40;91.60;;;;;;5032431;28;20022;-43
2024/03/19 09:08:46;;;;;;;0.88;0.57;;;19.40;91.60;;;;;;5032573;28;20048;-43
2024/03/19 09:11:11;;;;;;;0.93;0.52;;;19.40;91.50;;;;;;5032234;28;20654;-44
2024/03/19 09:13:37;;;;;;;1.73;0.70;;;19.50;91.50;;;;;;5032346;28;20064;-45
2024/03/19 09:16:04;;;;;;;0.75;0.50;;;19.50;91.50;;;;;;5032174;28;20030;-46
2024/03/19 09:18:30;;;;;;;0.82;0.60;;;19.50;91.50;;;;;;5032165;28;20476;-45
2024/03/19 09:20:56;;;;;;;0.90;0.60;;;19.60;91.80;;;;;;5031904;28;20025;-45
2024/03/19 09:23:23;;;;;;;1.15;0.70;;;19.50;91.40;;;;;;5032244;28;20362;-43
2024/03/19 09:25:49;;;;;;;0.70;0.52;;;19.60;91.40;;;;;;5032167;28;20477;-46
2024/03/19 09:28:15;;;;;;;0.50;0.50;;;19.60;91.40;;;;;;5030708;28;20053;-45
2024/03/19 09:30:41;;;;;;;0.77;0.60;;;19.60;91.40;;;;;;5030555;28;20065;-45
2024/03/19 09:33:09;;;;;;;0.70;0.60;;;19.70;91.40;;;;;;5031908;28;20036;-45
2024/03/19 09:35:35;;;;;;;0.63;0.50;;;19.70;91.40;;;;;;5031804;28;20420;-44
2024/03/19 09:38:01;;;;;;;0.60;0.50;;;19.70;91.30;;;;;;5031605;28;20032;-44
2024/03/19 09:40:27;;;;;;;0.52;0.47;;;19.70;91.30;;;;;;5030446;28;20124;-44
2024/03/19 09:42:54;;;;;;;0.73;0.52;;;19.80;91.20;;;;;;5031767;28;20030;-44
2024/03/19 09:45:29;;;;;;;0.85;0.55;;;19.80;91.20;;;;;;5031734;28;20030;-44
2024/03/19 09:47:55;;;;;;;1.45;0.80;;;19.90;91.10;;;;;;5031508;28;20028;-44
2024/03/19 09:50:22;;;;;;;0.85;0.60;;;20.00;91.10;;;;;;5031742;28;20029;-44
2024/03/19 09:52:50;;;;;;;0.70;0.60;;;20.00;91.00;;;;;;5031693;28;20105;-44
2024/03/19 09:55:17;;;;;;;1.05;0.68;;;20.00;91.00;;;;;;5063421;28;20017;-44
2024/03/19 09:57:45;;;;;;;0.75;0.50;;;20.10;91.00;;;;;;5031361;28;20500;-44
2024/03/19 10:00:21;;;;;;;0.57;0.47;;;20.10;90.90;;;;;;5031418;28;20389;-44
2024/03/19 10:02:47;;;;;;;0.52;0.40;;;20.10;90.90;;;;;;5031487;28;20025;-44
2024/03/19 10:05:13;;;;;;;1.05;0.60;;;20.20;90.90;;;;;;5031628;28;20036;-44
2024/03/19 10:07:39;;;;;;;0.80;0.60;;;20.20;90.80;;;;;;5031416;28;20396;-44
2024/03/19 10:10:06;;;;;;;0.73;0.50;;;20.20;90.80;;;;;;5031480;28;20364;-44
2024/03/19 10:12:33;;;;;;;0.63;0.50;;;20.30;90.80;;;;;;5031460;28;20025;-45
2024/03/19 10:15:04;;;;;;;0.70;0.65;;;20.30;90.70;;;;;;5031605;28;20274;-44
2024/03/19 10:17:31;;;;;;;1.10;0.60;;;20.40;90.70;;;;;;5031189;28;20022;-44
2024/03/19 10:19:57;;;;;;;0.50;0.50;;;20.40;90.70;;;;;;5031310;28;20059;-45
2024/03/19 10:22:24;;;;;;;0.80;0.60;;;20.40;90.70;;;;;;5031466;28;20033;-46
2024/03/19 10:24:51;;;;;;;1.02;0.57;;;20.40;90.70;;;;;;5031232;28;20049;-46
2024/03/19 10:27:17;;;;;;;0.63;0.60;;;20.50;90.70;;;;;;5030999;28;20556;-46
2024/03/19 10:29:46;;;;;;;0.70;0.57;;;20.60;90.70;;;;;;5031024;28;20033;-46
2024/03/19 10:32:12;;;;;;;0.82;0.50;;;20.60;90.60;;;;;;5031150;28;20105;-45
2024/03/19 10:34:38;;;;;;;0.98;0.57;;;20.60;90.60;;;;;;5031079;28;20104;-43
2024/03/19 10:37:04;;;;;;;0.50;0.50;;;20.70;90.60;;;;;;5031182;28;20036;-44
2024/03/19 10:39:31;;;;;;;0.40;0.35;;;20.80;90.60;;;;;;5031045;28;20036;-46
2024/03/19 10:42:03;;;;;;;0.70;0.50;;;20.80;90.50;;;;;;5031077;28;20032;-46
2024/03/19 10:44:33;;;;;;;0.50;0.50;;;20.90;90.50;;;;;;5030970;28;20021;-44
2024/03/19 10:46:59;;;;;;;0.80;0.70;;;21.00;90.40;;;;;;5030918;28;20112;-44
2024/03/19 10:49:27;;;;;;;1.05;0.50;;;21.10;90.40;;;;;;5031603;28;20109;-46
2024/03/19 10:51:59;;;;;;;0.70;0.60;;;21.10;90.30;;;;;;5035053;28;20377;-46
2024/03/19 10:54:30;;;;;;;1.17;0.70;;;21.30;90.30;;;;;;5034887;28;20052;-44
2024/03/19 10:56:57;;;;;;;0.75;0.47;;;21.30;90.20;;;;;;5034739;28;20079;-44
2024/03/19 10:59:23;;;;;;;1.00;0.50;;;21.40;90.60;;;;;;5034690;28;20029;-44
2024/03/19 11:01:52;;;;;;;0.47;0.35;;;21.40;90.30;;;;;;5034854;28;20071;-46
2024/03/19 11:04:23;;;;;;;0.93;0.68;;;21.40;90.30;;;;;;5034826;28;20028;-46
2024/03/19 11:06:55;;;;;;;0.50;0.45;;;21.40;90.20;;;;;;5034637;28;20029;-45
2024/03/19 11:09:24;;;;;;;0.65;0.50;;;21.60;90.00;;;;;;5034567;28;20055;-46
2024/03/19 11:12:12;;;;;;;0.40;0.40;;;21.70;89.80;;;;;;5034582;28;20025;-46
2024/03/19 11:14:38;;;;;;;1.05;0.50;;;21.80;90.00;;;;;;5034738;28;20018;-46
2024/03/19 11:17:15;;;;;;;1.02;0.50;;;21.80;90.00;;;;;;5034487;28;20021;-43
2024/03/19 11:19:41;;;;;;;0.30;0.30;;;22.00;90.00;;;;;;5034513;28;20048;-45
2024/03/19 11:22:08;;;;;;;1.10;0.60;;;22.20;89.60;;;;;;5034615;28;20064;-44
2024/03/19 11:24:38;;;;;;;1.02;0.60;;;22.30;89.20;;;;;;5034369;28;20026;-45
2024/03/19 11:27:07;;;;;;;1.30;0.47;;;22.40;88.90;;;;;;5034259;28;20041;-45
2024/03/19 11:29:35;;;;;;;0.80;0.50;;;22.40;88.70;;;;;;5034158;28;20121;-43
2024/03/19 11:32:01;;;;;;;1.35;0.30;;;22.50;89.40;;;;;;5034164;28;20646;-44
2024/03/19 11:34:27;;;;;;;0.60;0.40;;;22.60;88.40;;;;;;5032861;28;20448;-45
2024/03/19 11:36:54;;;;;;;0.60;0.40;;;22.60;88.30;;;;;;5034275;28;20026;-44
2024/03/19 11:39:21;;;;;;;0.63;0.40;;;22.70;88.20;;;;;;5034314;28;20021;-44
2024/03/19 11:41:47;;;;;;;0.40;0.30;;;22.80;88.00;;;;;;5034096;28;20056;-43
2024/03/19 11:44:15;;;;;;;0.82;0.47;;;22.90;87.70;;;;;;5034102;28;20036;-46
2024/03/19 11:46:41;;;;;;;0.70;0.50;;;23.10;87.30;;;;;;5033802;28;20028;-44
2024/03/19 11:49:23;;;;;;;1.25;0.40;;;23.20;87.00;;;;;;5033825;28;20389;-45
2024/03/19 11:52:02;;;;;;;0.40;0.38;;;23.20;86.70;;;;;;5034041;28;20030;-44
2024/03/19 11:54:29;;;;;;;0.80;0.55;;;23.20;86.40;;;;;;5034017;28;20048;-45
2024/03/19 11:56:57;;;;;;;0.40;0.35;;;23.30;86.00;;;;;;5033511;28;20029;-44
2024/03/19 11:59:26;;;;;;;0.52;0.38;;;23.40;85.50;;;;;;5033657;28;20108;-46
2024/03/19 12:01:56;;;;;;;0.55;0.30;;;23.50;85.20;;;;;;5032668;28;20029;-46
2024/03/19 12:04:26;;;;;;;0.75;0.50;;;23.60;85.10;;;;;;5033829;28;20055;-45
2024/03/19 12:06:52;;;;;;;0.60;0.40;;;23.60;85.90;;;;;;5033860;28;20499;-42
2024/03/19 12:09:19;;;;;;;0.50;0.30;;;23.60;84.90;;;;;;5033448;28;20112;-45
2024/03/19 12:11:45;;;;;;;0.88;0.50;;;23.60;84.70;;;;;;5033420;28;20084;-46
2024/03/19 12:14:16;;;;;;;0.55;0.43;;;23.60;84.50;;;;;;5033750;28;20078;-46
2024/03/19 12:16:43;;;;;;;1.08;0.50;;;23.70;84.50;;;;;;5033460;28;20039;-44
2024/03/19 12:19:11;;;;;;;0.60;0.30;;;23.70;84.40;;;;;;5033615;28;20021;-46
2024/03/19 12:21:47;;;;;;;0.45;0.35;;;23.70;85.20;;;;;;5033604;28;20053;-46
2024/03/19 12:24:15;;;;;;;0.93;0.40;;;23.70;84.30;;;;;;5033265;28;20025;-45
2024/03/19 12:26:45;;;;;;;0.30;0.28;;;23.70;84.20;;;;;;5033489;28;20052;-44
2024/03/19 12:29:16;;;;;;;0.50;0.35;;;23.70;84.10;;;;;;5033209;28;20021;-45
2024/03/19 12:31:49;;;;;;;0.60;0.35;;;23.70;84.10;;;;;;5033051;28;20029;-45
2024/03/19 12:37:06;;;;;;;0.63;0.40;;;23.70;84.10;;;;;;5032909;28;20570;-45
2024/03/19 12:39:32;;;;;;;0.40;0.30;;;23.70;84.20;;;;;;5033048;28;20033;-44
2024/03/19 12:41:57;;;;;;;0.80;0.43;;;23.70;84.20;;;;;;5033204;28;20465;-44
2024/03/19 12:44:23;;;;;;;0.30;0.30;;;23.70;84.20;;;;;;5032869;28;20083;-44
2024/03/19 12:46:49;;;;;;;0.50;0.30;;;23.70;84.20;;;;;;5031427;28;20025;-44
2024/03/19 12:49:15;;;;;;;0.35;0.30;;;23.70;84.00;;;;;;5032620;28;20032;-44